sensor_id;sensor_type;location;lat;lon;timestamp;temperature;humidity
14182;DHT22;7171;50.936;6.764;2023-06-04T00:00:00;16.70;72.00
14182;DHT22;7171;50.936;6.764;2023-06-04T00:02:26;16.70;72.00
14182;DHT22;7171;50.936;6.764;2023-06-04T00:04:53;16.60;72.00
14182;DHT22;7171;50.936;6.764;2023-06-04T00:07:20;16.60;72.10
14182;DHT22;7171;50.936;6.764;2023-06-04T00:09:47;16.60;72.10
14182;DHT22;7171;50.936;6.764;2023-06-04T00:12:15;16.60;72.30
14182;DHT22;7171;50.936;6.764;2023-06-04T00:14:42;16.60;72.30
14182;DHT22;7171;50.936;6.764;2023-06-04T00:17:10;16.50;72.30
14182;DHT22;7171;50.936;6.764;2023-06-04T00:19:38;16.60;72.40
14182;DHT22;7171;50.936;6.764;2023-06-04T00:22:06;16.60;72.50
14182;DHT22;7171;50.936;6.764;2023-06-04T00:24:33;16.60;72.50
14182;DHT22;7171;50.936;6.764;2023-06-04T00:27:00;16.60;72.50
14182;DHT22;7171;50.936;6.764;2023-06-04T00:29:28;16.50;72.50
14182;DHT22;7171;50.936;6.764;2023-06-04T00:31:55;16.40;72.90
14182;DHT22;7171;50.936;6.764;2023-06-04T00:34:22;16.50;73.00
14182;DHT22;7171;50.936;6.764;2023-06-04T00:36:49;16.50;73.40
14182;DHT22;7171;50.936;6.764;2023-06-04T00:39:15;16.50;73.70
14182;DHT22;7171;50.936;6.764;2023-06-04T00:41:42;16.40;73.20
14182;DHT22;7171;50.936;6.764;2023-06-04T00:44:09;16.40;73.50
14182;DHT22;7171;50.936;6.764;2023-06-04T00:46:38;16.40;73.50
14182;DHT22;7171;50.936;6.764;2023-06-04T00:49:05;16.30;73.50
14182;DHT22;7171;50.936;6.764;2023-06-04T00:51:32;16.30;73.40
14182;DHT22;7171;50.936;6.764;2023-06-04T00:53:59;16.30;73.30
14182;DHT22;7171;50.936;6.764;2023-06-04T00:56:34;16.30;73.30
14182;DHT22;7171;50.936;6.764;2023-06-04T00:59:00;16.30;73.50
14182;DHT22;7171;50.936;6.764;2023-06-04T01:01:33;16.20;73.30
14182;DHT22;7171;50.936;6.764;2023-06-04T01:04:04;16.20;73.70
14182;DHT22;7171;50.936;6.764;2023-06-04T01:06:37;16.20;73.90
14182;DHT22;7171;50.936;6.764;2023-06-04T01:09:05;16.20;74.20
14182;DHT22;7171;50.936;6.764;2023-06-04T01:11:36;16.20;74.20
14182;DHT22;7171;50.936;6.764;2023-06-04T01:14:04;16.20;74.10
14182;DHT22;7171;50.936;6.764;2023-06-04T01:16:36;16.10;74.00
14182;DHT22;7171;50.936;6.764;2023-06-04T01:19:15;16.10;74.20
14182;DHT22;7171;50.936;6.764;2023-06-04T01:21:48;16.00;74.40
14182;DHT22;7171;50.936;6.764;2023-06-04T01:24:20;16.30;81.70
14182;DHT22;7171;50.936;6.764;2023-06-04T01:26:48;15.80;83.20
14182;DHT22;7171;50.936;6.764;2023-06-04T01:29:17;16.40;80.70
14182;DHT22;7171;50.936;6.764;2023-06-04T01:31:44;16.00;78.50
14182;DHT22;7171;50.936;6.764;2023-06-04T01:34:12;15.90;74.20
14182;DHT22;7171;50.936;6.764;2023-06-04T01:36:39;15.90;73.90
14182;DHT22;7171;50.936;6.764;2023-06-04T01:39:06;15.80;73.70
14182;DHT22;7171;50.936;6.764;2023-06-04T01:44:00;15.80;73.20
14182;DHT22;7171;50.936;6.764;2023-06-04T01:46:27;15.70;77.90
14182;DHT22;7171;50.936;6.764;2023-06-04T01:48:54;15.70;72.90
14182;DHT22;7171;50.936;6.764;2023-06-04T01:56:16;15.60;73.00
14182;DHT22;7171;50.936;6.764;2023-06-04T01:58:43;15.60;73.60
14182;DHT22;7171;50.936;6.764;2023-06-04T02:01:09;15.50;73.70
14182;DHT22;7171;50.936;6.764;2023-06-04T02:03:37;15.40;73.80
14182;DHT22;7171;50.936;6.764;2023-06-04T02:06:06;15.40;73.70
14182;DHT22;7171;50.936;6.764;2023-06-04T02:08:34;15.40;73.70
14182;DHT22;7171;50.936;6.764;2023-06-04T02:11:01;15.40;73.90
14182;DHT22;7171;50.936;6.764;2023-06-04T02:13:28;15.30;73.90
14182;DHT22;7171;50.936;6.764;2023-06-04T02:15:55;15.30;74.00
14182;DHT22;7171;50.936;6.764;2023-06-04T02:18:22;15.30;74.00
14182;DHT22;7171;50.936;6.764;2023-06-04T02:20:50;15.30;74.00
14182;DHT22;7171;50.936;6.764;2023-06-04T02:23:18;15.30;73.90
14182;DHT22;7171;50.936;6.764;2023-06-04T02:25:47;15.30;74.10
14182;DHT22;7171;50.936;6.764;2023-06-04T02:28:15;15.30;74.10
14182;DHT22;7171;50.936;6.764;2023-06-04T02:30:42;15.30;74.40
14182;DHT22;7171;50.936;6.764;2023-06-04T02:33:09;15.20;74.20
14182;DHT22;7171;50.936;6.764;2023-06-04T02:35:36;15.20;74.10
14182;DHT22;7171;50.936;6.764;2023-06-04T02:38:03;15.10;74.30
14182;DHT22;7171;50.936;6.764;2023-06-04T02:40:30;15.00;74.10
14182;DHT22;7171;50.936;6.764;2023-06-04T02:42:58;15.00;74.20
14182;DHT22;7171;50.936;6.764;2023-06-04T02:45:25;15.00;74.70
14182;DHT22;7171;50.936;6.764;2023-06-04T02:47:52;14.90;74.20
14182;DHT22;7171;50.936;6.764;2023-06-04T02:50:19;14.90;74.50
14182;DHT22;7171;50.936;6.764;2023-06-04T02:52:46;14.80;74.40
14182;DHT22;7171;50.936;6.764;2023-06-04T02:55:13;14.80;74.50
14182;DHT22;7171;50.936;6.764;2023-06-04T02:57:41;14.80;74.90
14182;DHT22;7171;50.936;6.764;2023-06-04T03:00:11;14.80;74.70
14182;DHT22;7171;50.936;6.764;2023-06-04T03:02:42;14.70;74.70
14182;DHT22;7171;50.936;6.764;2023-06-04T03:05:11;14.70;74.80
14182;DHT22;7171;50.936;6.764;2023-06-04T03:07:39;14.70;74.80
14182;DHT22;7171;50.936;6.764;2023-06-04T03:10:09;14.70;75.00
14182;DHT22;7171;50.936;6.764;2023-06-04T03:12:36;14.70;74.90
14182;DHT22;7171;50.936;6.764;2023-06-04T03:15:03;14.70;75.00
14182;DHT22;7171;50.936;6.764;2023-06-04T03:17:32;14.70;75.10
14182;DHT22;7171;50.936;6.764;2023-06-04T03:19:58;14.70;75.00
14182;DHT22;7171;50.936;6.764;2023-06-04T03:22:26;14.70;75.10
14182;DHT22;7171;50.936;6.764;2023-06-04T03:24:54;14.70;75.10
14182;DHT22;7171;50.936;6.764;2023-06-04T03:27:20;14.70;75.20
14182;DHT22;7171;50.936;6.764;2023-06-04T03:29:47;14.60;75.10
14182;DHT22;7171;50.936;6.764;2023-06-04T03:32:14;14.60;75.30
14182;DHT22;7171;50.936;6.764;2023-06-04T03:34:44;14.60;75.10
14182;DHT22;7171;50.936;6.764;2023-06-04T03:37:11;14.60;75.40
14182;DHT22;7171;50.936;6.764;2023-06-04T03:39:37;14.60;75.50
14182;DHT22;7171;50.936;6.764;2023-06-04T03:42:05;14.50;75.50
14182;DHT22;7171;50.936;6.764;2023-06-04T03:44:32;14.50;75.60
14182;DHT22;7171;50.936;6.764;2023-06-04T03:46:58;14.50;75.70
14182;DHT22;7171;50.936;6.764;2023-06-04T03:49:25;14.40;75.50
14182;DHT22;7171;50.936;6.764;2023-06-04T03:51:53;14.40;75.60
14182;DHT22;7171;50.936;6.764;2023-06-04T03:54:21;14.40;75.80
14182;DHT22;7171;50.936;6.764;2023-06-04T03:56:48;14.40;75.80
14182;DHT22;7171;50.936;6.764;2023-06-04T03:59:15;14.40;76.70
14182;DHT22;7171;50.936;6.764;2023-06-04T04:01:42;14.40;76.10
14182;DHT22;7171;50.936;6.764;2023-06-04T04:04:08;14.40;75.70
14182;DHT22;7171;50.936;6.764;2023-06-04T04:06:35;14.40;76.30
14182;DHT22;7171;50.936;6.764;2023-06-04T04:09:04;14.40;76.40
14182;DHT22;7171;50.936;6.764;2023-06-04T04:11:32;14.40;76.60
14182;DHT22;7171;50.936;6.764;2023-06-04T04:13:59;14.20;76.40
14182;DHT22;7171;50.936;6.764;2023-06-04T04:16:26;14.30;76.80
14182;DHT22;7171;50.936;6.764;2023-06-04T04:18:54;14.30;76.80
14182;DHT22;7171;50.936;6.764;2023-06-04T04:21:20;14.30;77.00
14182;DHT22;7171;50.936;6.764;2023-06-04T04:23:49;14.30;77.20
14182;DHT22;7171;50.936;6.764;2023-06-04T04:26:18;14.30;77.60
14182;DHT22;7171;50.936;6.764;2023-06-04T04:28:45;14.30;77.50
14182;DHT22;7171;50.936;6.764;2023-06-04T04:31:11;14.30;77.60
14182;DHT22;7171;50.936;6.764;2023-06-04T04:33:38;14.30;77.80
14182;DHT22;7171;50.936;6.764;2023-06-04T04:36:06;14.30;78.00
14182;DHT22;7171;50.936;6.764;2023-06-04T04:38:38;14.40;78.30
14182;DHT22;7171;50.936;6.764;2023-06-04T04:41:05;14.40;78.50
14182;DHT22;7171;50.936;6.764;2023-06-04T04:43:35;14.40;78.60
14182;DHT22;7171;50.936;6.764;2023-06-04T04:46:03;14.40;78.60
14182;DHT22;7171;50.936;6.764;2023-06-04T04:48:29;14.40;79.00
14182;DHT22;7171;50.936;6.764;2023-06-04T04:50:56;14.40;79.70
14182;DHT22;7171;50.936;6.764;2023-06-04T04:53:23;14.40;79.20
14182;DHT22;7171;50.936;6.764;2023-06-04T04:55:50;14.40;79.50
14182;DHT22;7171;50.936;6.764;2023-06-04T04:58:17;14.50;79.70
14182;DHT22;7171;50.936;6.764;2023-06-04T05:00:45;14.40;79.80
14182;DHT22;7171;50.936;6.764;2023-06-04T05:03:13;14.40;79.60
14182;DHT22;7171;50.936;6.764;2023-06-04T05:05:40;14.50;80.10
14182;DHT22;7171;50.936;6.764;2023-06-04T05:08:06;14.50;80.00
14182;DHT22;7171;50.936;6.764;2023-06-04T05:10:33;14.50;80.30
14182;DHT22;7171;50.936;6.764;2023-06-04T05:13:01;14.50;80.50
14182;DHT22;7171;50.936;6.764;2023-06-04T05:15:30;14.50;80.50
14182;DHT22;7171;50.936;6.764;2023-06-04T05:17:58;14.60;80.70
14182;DHT22;7171;50.936;6.764;2023-06-04T05:20:26;14.60;80.80
14182;DHT22;7171;50.936;6.764;2023-06-04T05:22:52;14.60;81.00
14182;DHT22;7171;50.936;6.764;2023-06-04T05:25:20;14.60;81.30
14182;DHT22;7171;50.936;6.764;2023-06-04T05:27:48;14.60;81.60
14182;DHT22;7171;50.936;6.764;2023-06-04T05:30:15;14.60;81.70
14182;DHT22;7171;50.936;6.764;2023-06-04T05:32:42;14.70;82.10
14182;DHT22;7171;50.936;6.764;2023-06-04T05:35:10;14.70;82.10
14182;DHT22;7171;50.936;6.764;2023-06-04T05:37:38;14.70;82.00
14182;DHT22;7171;50.936;6.764;2023-06-04T05:40:07;14.70;81.90
14182;DHT22;7171;50.936;6.764;2023-06-04T05:42:35;14.70;82.00
14182;DHT22;7171;50.936;6.764;2023-06-04T05:45:01;14.80;82.30
14182;DHT22;7171;50.936;6.764;2023-06-04T05:47:28;14.80;82.20
14182;DHT22;7171;50.936;6.764;2023-06-04T05:49:57;14.90;82.50
14182;DHT22;7171;50.936;6.764;2023-06-04T05:52:25;15.00;82.80
14182;DHT22;7171;50.936;6.764;2023-06-04T05:54:52;15.00;82.70
14182;DHT22;7171;50.936;6.764;2023-06-04T05:57:19;15.10;82.70
14182;DHT22;7171;50.936;6.764;2023-06-04T05:59:46;15.20;82.90
14182;DHT22;7171;50.936;6.764;2023-06-04T06:02:13;15.20;82.80
14182;DHT22;7171;50.936;6.764;2023-06-04T06:04:40;15.30;82.60
14182;DHT22;7171;50.936;6.764;2023-06-04T06:07:07;15.40;82.90
14182;DHT22;7171;50.936;6.764;2023-06-04T06:09:35;15.50;83.00
14182;DHT22;7171;50.936;6.764;2023-06-04T06:12:02;15.60;83.30
14182;DHT22;7171;50.936;6.764;2023-06-04T06:14:29;15.70;83.40
14182;DHT22;7171;50.936;6.764;2023-06-04T06:16:55;15.70;83.30
14182;DHT22;7171;50.936;6.764;2023-06-04T06:19:22;15.80;82.90
14182;DHT22;7171;50.936;6.764;2023-06-04T06:21:49;15.90;82.80
14182;DHT22;7171;50.936;6.764;2023-06-04T06:24:15;16.00;82.00
14182;DHT22;7171;50.936;6.764;2023-06-04T06:26:44;16.10;82.40
14182;DHT22;7171;50.936;6.764;2023-06-04T06:29:10;16.20;82.50
14182;DHT22;7171;50.936;6.764;2023-06-04T06:31:37;16.30;82.00
14182;DHT22;7171;50.936;6.764;2023-06-04T06:34:04;16.30;82.00
14182;DHT22;7171;50.936;6.764;2023-06-04T06:36:31;16.40;82.60
14182;DHT22;7171;50.936;6.764;2023-06-04T06:38:58;16.50;82.20
14182;DHT22;7171;50.936;6.764;2023-06-04T06:41:25;16.50;82.00
14182;DHT22;7171;50.936;6.764;2023-06-04T06:43:53;16.60;82.00
14182;DHT22;7171;50.936;6.764;2023-06-04T06:46:20;16.60;82.10
14182;DHT22;7171;50.936;6.764;2023-06-04T06:48:47;16.70;82.10
14182;DHT22;7171;50.936;6.764;2023-06-04T06:51:14;16.70;82.50
14182;DHT22;7171;50.936;6.764;2023-06-04T06:53:42;16.80;82.50
14182;DHT22;7171;50.936;6.764;2023-06-04T06:56:08;16.80;82.90
14182;DHT22;7171;50.936;6.764;2023-06-04T06:58:35;16.90;83.20
14182;DHT22;7171;50.936;6.764;2023-06-04T07:01:03;16.90;83.40
14182;DHT22;7171;50.936;6.764;2023-06-04T07:03:31;16.90;83.50
14182;DHT22;7171;50.936;6.764;2023-06-04T07:08:25;17.00;83.20
14182;DHT22;7171;50.936;6.764;2023-06-04T07:10:52;17.10;83.20
14182;DHT22;7171;50.936;6.764;2023-06-04T07:13:19;17.10;83.80
14182;DHT22;7171;50.936;6.764;2023-06-04T07:15:46;17.20;83.60
14182;DHT22;7171;50.936;6.764;2023-06-04T07:18:14;17.30;83.30
14182;DHT22;7171;50.936;6.764;2023-06-04T07:20:40;17.30;83.00
14182;DHT22;7171;50.936;6.764;2023-06-04T07:23:07;17.40;83.60
14182;DHT22;7171;50.936;6.764;2023-06-04T07:25:34;17.50;83.80
14182;DHT22;7171;50.936;6.764;2023-06-04T07:28:01;17.50;83.50
14182;DHT22;7171;50.936;6.764;2023-06-04T07:30:29;17.60;82.90
14182;DHT22;7171;50.936;6.764;2023-06-04T07:32:56;17.60;83.10
14182;DHT22;7171;50.936;6.764;2023-06-04T07:35:24;17.70;82.90
14182;DHT22;7171;50.936;6.764;2023-06-04T07:37:51;17.80;83.80
14182;DHT22;7171;50.936;6.764;2023-06-04T07:42:46;17.90;82.90
14182;DHT22;7171;50.936;6.764;2023-06-04T07:45:13;17.90;83.40
14182;DHT22;7171;50.936;6.764;2023-06-04T07:47:39;18.00;83.50
14182;DHT22;7171;50.936;6.764;2023-06-04T07:50:07;18.10;83.60
14182;DHT22;7171;50.936;6.764;2023-06-04T07:52:35;18.10;83.40
14182;DHT22;7171;50.936;6.764;2023-06-04T07:55:02;18.10;83.80
14182;DHT22;7171;50.936;6.764;2023-06-04T07:57:30;18.20;83.30
14182;DHT22;7171;50.936;6.764;2023-06-04T07:59:57;18.30;84.40
14182;DHT22;7171;50.936;6.764;2023-06-04T08:02:24;18.40;84.50
14182;DHT22;7171;50.936;6.764;2023-06-04T08:04:51;18.40;84.20
14182;DHT22;7171;50.936;6.764;2023-06-04T08:07:18;18.50;84.40
14182;DHT22;7171;50.936;6.764;2023-06-04T08:09:46;18.40;83.70
14182;DHT22;7171;50.936;6.764;2023-06-04T08:12:13;18.60;83.90
14182;DHT22;7171;50.936;6.764;2023-06-04T08:17:08;18.80;83.80
14182;DHT22;7171;50.936;6.764;2023-06-04T08:19:35;18.90;84.10
14182;DHT22;7171;50.936;6.764;2023-06-04T08:22:02;19.00;85.40
14182;DHT22;7171;50.936;6.764;2023-06-04T08:24:29;19.10;87.30
14182;DHT22;7171;50.936;6.764;2023-06-04T08:26:57;19.20;93.30
14182;DHT22;7171;50.936;6.764;2023-06-04T08:29:24;19.30;86.40
14182;DHT22;7171;50.936;6.764;2023-06-04T08:31:51;19.30;83.50
14182;DHT22;7171;50.936;6.764;2023-06-04T08:34:18;19.40;84.40
14182;DHT22;7171;50.936;6.764;2023-06-04T08:39:13;19.60;82.80
14182;DHT22;7171;50.936;6.764;2023-06-04T08:41:43;19.70;83.50
14182;DHT22;7171;50.936;6.764;2023-06-04T08:44:11;19.70;83.60
14182;DHT22;7171;50.936;6.764;2023-06-04T08:46:39;19.80;83.50
14182;DHT22;7171;50.936;6.764;2023-06-04T08:49:07;19.90;83.30
14182;DHT22;7171;50.936;6.764;2023-06-04T08:51:35;19.90;83.50
14182;DHT22;7171;50.936;6.764;2023-06-04T08:54:04;20.00;83.80
14182;DHT22;7171;50.936;6.764;2023-06-04T08:56:31;20.10;83.50
14182;DHT22;7171;50.936;6.764;2023-06-04T08:59:00;20.20;82.40
14182;DHT22;7171;50.936;6.764;2023-06-04T09:01:29;20.30;82.60
14182;DHT22;7171;50.936;6.764;2023-06-04T09:04:04;20.40;82.30
14182;DHT22;7171;50.936;6.764;2023-06-04T09:06:40;20.40;82.30
14182;DHT22;7171;50.936;6.764;2023-06-04T09:09:09;20.60;82.40
14182;DHT22;7171;50.936;6.764;2023-06-04T09:11:41;20.70;82.50
14182;DHT22;7171;50.936;6.764;2023-06-04T09:14:14;20.70;81.80
14182;DHT22;7171;50.936;6.764;2023-06-04T09:16:45;20.80;81.90
14182;DHT22;7171;50.936;6.764;2023-06-04T09:19:12;20.90;81.80
14182;DHT22;7171;50.936;6.764;2023-06-04T09:21:52;21.00;82.30
14182;DHT22;7171;50.936;6.764;2023-06-04T09:24:20;21.10;82.50
14182;DHT22;7171;50.936;6.764;2023-06-04T09:26:47;21.20;82.00
14182;DHT22;7171;50.936;6.764;2023-06-04T09:29:15;21.20;82.00
14182;DHT22;7171;50.936;6.764;2023-06-04T09:31:46;21.30;82.00
14182;DHT22;7171;50.936;6.764;2023-06-04T09:34:13;21.40;81.60
14182;DHT22;7171;50.936;6.764;2023-06-04T09:36:40;21.40;81.40
14182;DHT22;7171;50.936;6.764;2023-06-04T09:39:15;21.60;82.00
14182;DHT22;7171;50.936;6.764;2023-06-04T09:41:42;21.70;79.80
14182;DHT22;7171;50.936;6.764;2023-06-04T09:44:09;21.70;79.90
14182;DHT22;7171;50.936;6.764;2023-06-04T09:46:37;21.80;79.00
14182;DHT22;7171;50.936;6.764;2023-06-04T09:49:06;21.70;79.10
14182;DHT22;7171;50.936;6.764;2023-06-04T09:51:33;21.90;78.90
14182;DHT22;7171;50.936;6.764;2023-06-04T09:54:01;22.10;85.60
14182;DHT22;7171;50.936;6.764;2023-06-04T09:56:28;22.10;77.80
14182;DHT22;7171;50.936;6.764;2023-06-04T09:58:57;22.10;77.10
14182;DHT22;7171;50.936;6.764;2023-06-04T10:01:27;22.20;80.40
14182;DHT22;7171;50.936;6.764;2023-06-04T10:03:57;22.20;81.00
14182;DHT22;7171;50.936;6.764;2023-06-04T10:06:26;22.30;77.40
14182;DHT22;7171;50.936;6.764;2023-06-04T10:08:55;22.10;82.90
14182;DHT22;7171;50.936;6.764;2023-06-04T10:11:26;22.80;77.10
14182;DHT22;7171;50.936;6.764;2023-06-04T10:14:01;22.50;76.50
14182;DHT22;7171;50.936;6.764;2023-06-04T10:16:29;22.60;77.20
14182;DHT22;7171;50.936;6.764;2023-06-04T10:18:57;22.60;75.90
14182;DHT22;7171;50.936;6.764;2023-06-04T10:21:26;22.70;76.40
14182;DHT22;7171;50.936;6.764;2023-06-04T10:23:57;22.80;86.20
14182;DHT22;7171;50.936;6.764;2023-06-04T10:26:25;22.60;90.80
14182;DHT22;7171;50.936;6.764;2023-06-04T10:28:52;23.40;90.10
14182;DHT22;7171;50.936;6.764;2023-06-04T10:31:19;22.90;74.70
14182;DHT22;7171;50.936;6.764;2023-06-04T10:33:46;22.90;75.00
14182;DHT22;7171;50.936;6.764;2023-06-04T10:36:17;23.00;72.30
14182;DHT22;7171;50.936;6.764;2023-06-04T10:38:47;23.00;73.20
14182;DHT22;7171;50.936;6.764;2023-06-04T10:41:14;23.00;74.30
14182;DHT22;7171;50.936;6.764;2023-06-04T10:43:42;23.10;74.10
14182;DHT22;7171;50.936;6.764;2023-06-04T10:46:13;23.10;73.60
14182;DHT22;7171;50.936;6.764;2023-06-04T10:48:47;23.20;74.10
14182;DHT22;7171;50.936;6.764;2023-06-04T10:51:15;23.30;74.10
14182;DHT22;7171;50.936;6.764;2023-06-04T10:53:42;23.30;74.20
14182;DHT22;7171;50.936;6.764;2023-06-04T10:56:10;23.40;73.80
14182;DHT22;7171;50.936;6.764;2023-06-04T10:58:37;22.50;73.50
14182;DHT22;7171;50.936;6.764;2023-06-04T11:01:04;23.60;73.40
14182;DHT22;7171;50.936;6.764;2023-06-04T11:03:37;23.60;72.20
14182;DHT22;7171;50.936;6.764;2023-06-04T11:06:15;23.70;71.00
14182;DHT22;7171;50.936;6.764;2023-06-04T11:08:43;23.70;71.20
14182;DHT22;7171;50.936;6.764;2023-06-04T11:11:15;23.70;72.20
14182;DHT22;7171;50.936;6.764;2023-06-04T11:13:43;23.70;72.40
14182;DHT22;7171;50.936;6.764;2023-06-04T11:16:16;23.70;73.10
14182;DHT22;7171;50.936;6.764;2023-06-04T11:18:43;23.80;72.00
14182;DHT22;7171;50.936;6.764;2023-06-04T11:21:20;23.80;72.40
14182;DHT22;7171;50.936;6.764;2023-06-04T11:23:47;23.80;72.00
14182;DHT22;7171;50.936;6.764;2023-06-04T11:26:15;23.80;73.10
14182;DHT22;7171;50.936;6.764;2023-06-04T11:28:42;23.80;71.90
14182;DHT22;7171;50.936;6.764;2023-06-04T11:31:10;23.80;71.60
14182;DHT22;7171;50.936;6.764;2023-06-04T11:33:42;24.00;75.10
14182;DHT22;7171;50.936;6.764;2023-06-04T11:36:10;23.70;73.90
14182;DHT22;7171;50.936;6.764;2023-06-04T11:38:37;24.10;78.10
14182;DHT22;7171;50.936;6.764;2023-06-04T11:41:03;24.00;71.50
14182;DHT22;7171;50.936;6.764;2023-06-04T11:43:33;24.10;72.20
14182;DHT22;7171;50.936;6.764;2023-06-04T11:46:06;24.10;71.80
14182;DHT22;7171;50.936;6.764;2023-06-04T11:48:33;24.20;71.10
14182;DHT22;7171;50.936;6.764;2023-06-04T11:51:06;24.20;71.10
14182;DHT22;7171;50.936;6.764;2023-06-04T11:53:33;24.30;71.30
14182;DHT22;7171;50.936;6.764;2023-06-04T11:56:00;24.30;71.00
14182;DHT22;7171;50.936;6.764;2023-06-04T11:58:27;24.30;70.70
14182;DHT22;7171;50.936;6.764;2023-06-04T12:00:56;24.30;69.80
14182;DHT22;7171;50.936;6.764;2023-06-04T12:03:33;24.30;71.10
14182;DHT22;7171;50.936;6.764;2023-06-04T12:06:09;24.30;70.60
14182;DHT22;7171;50.936;6.764;2023-06-04T12:08:45;24.30;71.10
14182;DHT22;7171;50.936;6.764;2023-06-04T12:11:24;24.40;70.50
14182;DHT22;7171;50.936;6.764;2023-06-04T12:13:52;24.40;70.60
14182;DHT22;7171;50.936;6.764;2023-06-04T12:16:20;24.40;68.90
14182;DHT22;7171;50.936;6.764;2023-06-04T12:18:47;24.40;68.00
14182;DHT22;7171;50.936;6.764;2023-06-04T12:21:20;24.40;68.10
14182;DHT22;7171;50.936;6.764;2023-06-04T12:24:05;24.40;69.20
14182;DHT22;7171;50.936;6.764;2023-06-04T12:26:32;24.40;69.80
14182;DHT22;7171;50.936;6.764;2023-06-04T12:29:07;24.50;69.70
14182;DHT22;7171;50.936;6.764;2023-06-04T12:31:37;24.50;70.10
14182;DHT22;7171;50.936;6.764;2023-06-04T12:34:04;24.50;69.20
14182;DHT22;7171;50.936;6.764;2023-06-04T12:36:31;24.50;69.20
14182;DHT22;7171;50.936;6.764;2023-06-04T12:39:00;24.50;68.50
14182;DHT22;7171;50.936;6.764;2023-06-04T12:41:27;24.60;68.90
14182;DHT22;7171;50.936;6.764;2023-06-04T12:43:54;24.70;69.10
14182;DHT22;7171;50.936;6.764;2023-06-04T12:46:21;24.70;68.70
14182;DHT22;7171;50.936;6.764;2023-06-04T12:48:50;24.70;67.40
14182;DHT22;7171;50.936;6.764;2023-06-04T12:51:17;24.80;68.20
14182;DHT22;7171;50.936;6.764;2023-06-04T12:53:45;24.80;68.40
14182;DHT22;7171;50.936;6.764;2023-06-04T12:56:11;24.80;68.60
14182;DHT22;7171;50.936;6.764;2023-06-04T12:58:38;24.80;66.20
14182;DHT22;7171;50.936;6.764;2023-06-04T13:01:05;24.90;66.70
14182;DHT22;7171;50.936;6.764;2023-06-04T13:03:33;24.90;67.50
14182;DHT22;7171;50.936;6.764;2023-06-04T13:06:01;24.90;67.70
14182;DHT22;7171;50.936;6.764;2023-06-04T13:08:28;25.00;68.00
14182;DHT22;7171;50.936;6.764;2023-06-04T13:10:54;25.00;67.60
14182;DHT22;7171;50.936;6.764;2023-06-04T13:13:22;25.00;66.40
14182;DHT22;7171;50.936;6.764;2023-06-04T13:15:48;25.00;66.50
14182;DHT22;7171;50.936;6.764;2023-06-04T13:18:15;25.10;66.30
14182;DHT22;7171;50.936;6.764;2023-06-04T13:20:42;25.20;65.60
14182;DHT22;7171;50.936;6.764;2023-06-04T13:23:10;25.10;66.00
14182;DHT22;7171;50.936;6.764;2023-06-04T13:25:38;25.20;66.80
14182;DHT22;7171;50.936;6.764;2023-06-04T13:28:05;25.20;67.00
14182;DHT22;7171;50.936;6.764;2023-06-04T13:30:34;25.30;67.10
14182;DHT22;7171;50.936;6.764;2023-06-04T13:33:01;25.20;67.00
14182;DHT22;7171;50.936;6.764;2023-06-04T13:35:28;25.30;67.50
14182;DHT22;7171;50.936;6.764;2023-06-04T13:37:55;25.30;68.00
14182;DHT22;7171;50.936;6.764;2023-06-04T13:40:23;25.40;67.90
14182;DHT22;7171;50.936;6.764;2023-06-04T13:45:17;25.60;68.80
14182;DHT22;7171;50.936;6.764;2023-06-04T13:47:45;25.50;73.60
14182;DHT22;7171;50.936;6.764;2023-06-04T13:50:13;26.00;80.10
14182;DHT22;7171;50.936;6.764;2023-06-04T13:52:40;25.50;83.20
14182;DHT22;7171;50.936;6.764;2023-06-04T13:55:07;25.60;69.20
14182;DHT22;7171;50.936;6.764;2023-06-04T13:57:36;25.50;66.20
14182;DHT22;7171;50.936;6.764;2023-06-04T14:00:03;25.50;66.40
14182;DHT22;7171;50.936;6.764;2023-06-04T14:02:31;25.50;66.30
14182;DHT22;7171;50.936;6.764;2023-06-04T14:04:58;25.50;67.30
14182;DHT22;7171;50.936;6.764;2023-06-04T14:07:25;25.50;67.30
14182;DHT22;7171;50.936;6.764;2023-06-04T14:09:52;25.50;67.70
14182;DHT22;7171;50.936;6.764;2023-06-04T14:12:20;25.50;66.60
14182;DHT22;7171;50.936;6.764;2023-06-04T14:14:48;25.60;67.00
14182;DHT22;7171;50.936;6.764;2023-06-04T14:17:16;25.50;66.10
14182;DHT22;7171;50.936;6.764;2023-06-04T14:19:42;25.60;64.90
14182;DHT22;7171;50.936;6.764;2023-06-04T14:22:09;25.60;66.30
14182;DHT22;7171;50.936;6.764;2023-06-04T14:24:36;25.60;66.70
14182;DHT22;7171;50.936;6.764;2023-06-04T14:27:03;25.60;66.30
14182;DHT22;7171;50.936;6.764;2023-06-04T14:29:32;25.70;66.90
14182;DHT22;7171;50.936;6.764;2023-06-04T14:32:00;25.80;66.60
14182;DHT22;7171;50.936;6.764;2023-06-04T14:34:27;25.80;66.50
14182;DHT22;7171;50.936;6.764;2023-06-04T14:36:53;25.90;66.50
14182;DHT22;7171;50.936;6.764;2023-06-04T14:39:20;26.00;67.00
14182;DHT22;7171;50.936;6.764;2023-06-04T14:41:47;26.00;66.50
14182;DHT22;7171;50.936;6.764;2023-06-04T14:44:14;26.00;67.00
14182;DHT22;7171;50.936;6.764;2023-06-04T14:46:41;26.00;66.30
14182;DHT22;7171;50.936;6.764;2023-06-04T14:49:09;25.80;64.50
14182;DHT22;7171;50.936;6.764;2023-06-04T14:51:36;26.00;64.60
14182;DHT22;7171;50.936;6.764;2023-06-04T14:54:03;25.80;65.00
14182;DHT22;7171;50.936;6.764;2023-06-04T14:56:30;25.80;64.60
14182;DHT22;7171;50.936;6.764;2023-06-04T14:58:58;25.80;63.70
14182;DHT22;7171;50.936;6.764;2023-06-04T15:01:26;25.70;63.70
14182;DHT22;7171;50.936;6.764;2023-06-04T15:03:53;25.60;64.60
14182;DHT22;7171;50.936;6.764;2023-06-04T15:06:21;25.60;65.50
14182;DHT22;7171;50.936;6.764;2023-06-04T15:08:47;25.60;63.00
14182;DHT22;7171;50.936;6.764;2023-06-04T15:11:14;25.60;63.70
14182;DHT22;7171;50.936;6.764;2023-06-04T15:13:41;25.60;63.20
14182;DHT22;7171;50.936;6.764;2023-06-04T15:16:08;25.50;63.60
14182;DHT22;7171;50.936;6.764;2023-06-04T15:18:35;25.50;63.80
14182;DHT22;7171;50.936;6.764;2023-06-04T15:21:02;25.50;63.50
14182;DHT22;7171;50.936;6.764;2023-06-04T15:23:30;25.50;64.00
14182;DHT22;7171;50.936;6.764;2023-06-04T15:25:57;25.60;64.10
14182;DHT22;7171;50.936;6.764;2023-06-04T15:28:23;25.60;64.00
14182;DHT22;7171;50.936;6.764;2023-06-04T15:30:50;25.70;64.80
14182;DHT22;7171;50.936;6.764;2023-06-04T15:33:17;25.80;64.30
14182;DHT22;7171;50.936;6.764;2023-06-04T15:35:44;25.80;63.20
14182;DHT22;7171;50.936;6.764;2023-06-04T15:38:10;25.80;63.50
14182;DHT22;7171;50.936;6.764;2023-06-04T15:40:38;25.80;63.90
14182;DHT22;7171;50.936;6.764;2023-06-04T15:43:05;25.80;64.10
14182;DHT22;7171;50.936;6.764;2023-06-04T15:45:32;25.80;64.50
14182;DHT22;7171;50.936;6.764;2023-06-04T15:47:59;25.90;64.40
14182;DHT22;7171;50.936;6.764;2023-06-04T15:50:25;25.80;63.50
14182;DHT22;7171;50.936;6.764;2023-06-04T15:52:52;25.80;63.50
14182;DHT22;7171;50.936;6.764;2023-06-04T15:55:19;25.90;63.50
14182;DHT22;7171;50.936;6.764;2023-06-04T15:57:48;25.90;63.10
14182;DHT22;7171;50.936;6.764;2023-06-04T16:00:14;25.90;63.20
14182;DHT22;7171;50.936;6.764;2023-06-04T16:02:41;25.80;63.60
14182;DHT22;7171;50.936;6.764;2023-06-04T16:05:08;25.70;63.50
14182;DHT22;7171;50.936;6.764;2023-06-04T16:07:35;25.80;63.40